createdAt,value
2018-06-11T00:02:04.895Z,80.89
2018-06-11T00:04:33.488Z,80.66
2018-06-11T00:07:02.052Z,80.45
2018-06-11T00:09:30.651Z,80.46
2018-06-11T00:11:59.241Z,80.76
2018-06-11T00:14:27.820Z,81.21
2018-06-11T00:16:56.407Z,82.15
2018-06-11T00:19:24.996Z,82.51
2018-06-11T00:21:53.601Z,82.48
2018-06-11T00:24:22.154Z,83.30
2018-06-11T00:26:50.734Z,83.77
2018-06-11T00:29:19.296Z,83.82
2018-06-11T00:31:47.907Z,84.58
2018-06-11T00:34:16.546Z,84.70
2018-06-11T00:36:45.112Z,84.17
2018-06-11T00:39:14.198Z,84.82
2018-06-11T00:41:42.781Z,84.67
2018-06-11T00:44:11.353Z,84.91
2018-06-11T00:46:39.906Z,84.33
2018-06-11T00:49:08.521Z,84.06
2018-06-11T00:51:37.109Z,84.53
2018-06-11T00:54:05.825Z,84.16
2018-06-11T00:56:34.413Z,83.12
2018-06-11T00:59:02.982Z,81.72
2018-06-11T01:01:31.537Z,81.19
2018-06-11T01:04:00.161Z,80.00
2018-06-11T01:06:28.729Z,79.41
2018-06-11T01:08:57.341Z,79.31
2018-06-11T01:11:25.920Z,80.37
2018-06-11T01:13:54.583Z,78.60
2018-06-11T01:16:23.245Z,78.32
2018-06-11T01:18:51.868Z,77.38
2018-06-11T01:21:20.470Z,77.50
2018-06-11T01:23:49.051Z,76.91
2018-06-11T01:26:17.629Z,76.24
2018-06-11T01:28:46.208Z,74.79
2018-06-11T01:31:14.793Z,74.05
2018-06-11T01:33:43.433Z,73.16
2018-06-11T01:36:12.050Z,72.35
2018-06-11T01:38:40.608Z,72.94
2018-06-11T01:41:09.225Z,71.67
2018-06-11T01:43:37.776Z,72.17
2018-06-11T01:46:06.361Z,72.31
2018-06-11T01:48:34.957Z,72.60
2018-06-11T01:51:03.577Z,71.65
2018-06-11T01:53:32.146Z,71.37
2018-06-11T01:56:00.824Z,72.00
2018-06-11T01:58:29.461Z,71.84
2018-06-11T02:00:58.045Z,72.17
2018-06-11T02:03:26.627Z,72.17
2018-06-11T02:05:55.231Z,72.33
2018-06-11T02:08:23.821Z,71.84
2018-06-11T02:10:52.394Z,71.45
2018-06-11T02:13:20.990Z,71.06
2018-06-11T02:15:49.563Z,70.63
2018-06-11T02:18:18.109Z,70.95
2018-06-11T02:20:48.101Z,70.38
2018-06-11T02:23:16.693Z,70.24
2018-06-11T02:25:45.377Z,69.75
2018-06-11T02:28:14.048Z,68.66
2018-06-11T02:30:42.624Z,70.01
2018-06-11T02:33:11.229Z,69.94
2018-06-11T02:35:39.892Z,70.20
2018-06-11T02:38:08.498Z,70.83
2018-06-11T02:40:37.102Z,70.56
2018-06-11T02:43:05.887Z,69.71
2018-06-11T02:45:34.462Z,70.51
2018-06-11T02:48:03.069Z,69.89
2018-06-11T02:50:31.701Z,69.63
2018-06-11T02:53:00.272Z,70.08
2018-06-11T02:55:28.879Z,69.93
2018-06-11T02:57:57.514Z,69.86
2018-06-11T03:00:26.100Z,70.24
2018-06-11T03:02:54.786Z,70.20
2018-06-11T03:05:23.357Z,70.31
2018-06-11T03:07:51.952Z,71.26
2018-06-11T03:10:20.572Z,71.27
2018-06-11T03:12:49.215Z,71.79
2018-06-11T03:15:17.809Z,72.12
2018-06-11T03:17:46.374Z,71.57
2018-06-11T03:20:14.949Z,71.00
2018-06-11T03:22:43.523Z,71.28
2018-06-11T03:25:12.100Z,70.70
2018-06-11T03:27:40.653Z,70.07
2018-06-11T03:30:09.258Z,70.14
2018-06-11T03:32:37.845Z,70.64
2018-06-11T03:35:06.434Z,71.61
2018-06-11T03:37:35.022Z,71.63
2018-06-11T03:40:03.678Z,71.72
2018-06-11T03:42:32.281Z,71.94
2018-06-11T03:45:00.865Z,71.33
2018-06-11T03:47:30.042Z,71.39
2018-06-11T03:49:58.620Z,71.15
2018-06-11T03:52:27.266Z,71.26
2018-06-11T03:54:55.861Z,71.03
2018-06-11T03:57:24.480Z,70.12
2018-06-11T03:59:53.106Z,69.33
2018-06-11T04:02:21.842Z,68.73
2018-06-11T04:04:50.430Z,68.91
2018-06-11T04:07:19.573Z,68.59
2018-06-11T04:09:48.209Z,67.30
2018-06-11T04:12:16.894Z,67.67
2018-06-11T04:14:45.516Z,67.49
2018-06-11T04:17:14.165Z,66.56
2018-06-11T04:19:42.749Z,65.92
2018-06-11T04:22:11.320Z,66.26
2018-06-11T04:24:39.938Z,66.56
2018-06-11T04:27:08.572Z,65.48
2018-06-11T04:29:38.055Z,65.99
2018-06-11T04:32:06.678Z,65.17
2018-06-11T04:34:35.271Z,66.17
2018-06-11T04:37:03.835Z,66.51
2018-06-11T04:39:32.397Z,65.00
2018-06-11T04:42:00.993Z,64.77
2018-06-11T04:44:29.569Z,65.33
2018-06-11T04:46:58.185Z,64.51
2018-06-11T04:49:26.792Z,63.99
2018-06-11T04:51:55.366Z,63.57
2018-06-11T04:54:23.968Z,63.72
2018-06-11T04:56:52.546Z,62.47
2018-06-11T04:59:21.141Z,62.29
2018-06-11T05:01:50.188Z,61.82
2018-06-11T05:04:18.770Z,61.93
2018-06-11T05:06:47.374Z,62.03
2018-06-11T05:09:16.029Z,61.18
2018-06-11T05:11:44.618Z,60.09
2018-06-11T05:14:13.257Z,59.67
2018-06-11T05:16:41.819Z,59.41
2018-06-11T05:19:10.414Z,59.81
2018-06-11T05:21:39.029Z,59.72
2018-06-11T05:24:07.656Z,59.58
2018-06-11T05:26:36.214Z,58.66
2018-06-11T05:29:04.811Z,58.31
2018-06-11T05:31:33.457Z,57.81
2018-06-11T05:34:02.247Z,57.59
2018-06-11T05:36:31.414Z,58.08
2018-06-11T05:39:00.046Z,57.18
2018-06-11T05:41:28.672Z,57.51
2018-06-11T05:43:57.553Z,57.46
2018-06-11T05:46:26.150Z,57.27
2018-06-11T05:48:54.759Z,57.39
2018-06-11T06:04:13.552Z,56.60
2018-06-11T06:06:42.157Z,56.56
2018-06-11T06:09:10.779Z,56.89
2018-06-11T06:11:39.390Z,57.54
2018-06-11T06:14:08.076Z,56.82
2018-06-11T06:16:36.736Z,56.14
2018-06-11T06:19:05.849Z,56.71
2018-06-11T06:21:34.520Z,56.73
2018-06-11T06:24:03.159Z,56.49
2018-06-11T06:26:31.815Z,56.22
2018-06-11T06:29:00.435Z,56.73
2018-06-11T06:31:29.226Z,57.12
2018-06-11T06:33:57.904Z,56.00
2018-06-11T06:36:26.595Z,55.85
2018-06-11T06:38:55.224Z,56.21
2018-06-11T06:41:23.866Z,56.15
2018-06-11T06:43:52.543Z,55.07
2018-06-11T06:46:21.241Z,56.22
2018-06-11T06:48:49.921Z,55.25
2018-06-11T06:51:18.615Z,55.37
2018-06-11T06:53:47.357Z,55.08
2018-06-11T06:56:15.989Z,54.39
2018-06-11T06:58:44.669Z,54.47
2018-06-11T07:01:13.307Z,53.54
2018-06-11T07:03:42.045Z,54.32
2018-06-11T07:06:10.756Z,54.57
2018-06-11T07:08:39.414Z,53.98
2018-06-11T07:11:08.104Z,53.27
2018-06-11T07:13:36.889Z,52.75
2018-06-11T07:16:05.552Z,52.38
2018-06-11T07:18:34.185Z,52.37
2018-06-11T07:21:02.862Z,53.04
2018-06-11T07:23:31.565Z,52.13
2018-06-11T07:26:00.213Z,52.57
2018-06-11T07:28:28.887Z,52.47
2018-06-11T07:30:57.533Z,51.97
2018-06-11T07:33:26.312Z,52.20
2018-06-11T07:35:54.988Z,52.50
2018-06-11T07:38:23.710Z,52.86
2018-06-11T07:40:52.330Z,52.64
2018-06-11T07:43:20.958Z,52.89
2018-06-11T07:45:49.598Z,52.65
2018-06-11T07:48:18.250Z,52.74
2018-06-11T07:50:46.924Z,52.72
2018-06-11T07:53:15.597Z,52.26
2018-06-11T07:55:44.255Z,52.31
2018-06-11T07:58:13.373Z,52.78
2018-06-11T08:00:42.095Z,52.60
2018-06-11T08:03:10.740Z,52.13
2018-06-11T08:05:39.476Z,51.78
2018-06-11T08:08:08.176Z,51.57
2018-06-11T08:10:37.055Z,51.32
2018-06-11T08:13:05.722Z,51.23
2018-06-11T08:15:34.398Z,51.58
2018-06-11T08:18:03.085Z,51.23
2018-06-11T08:20:31.759Z,50.58
2018-06-11T08:23:00.422Z,50.71
2018-06-11T08:25:29.139Z,50.82
2018-06-11T08:27:57.865Z,49.96
2018-06-11T08:30:26.665Z,50.81
2018-06-11T08:32:55.342Z,50.77
2018-06-11T08:35:23.987Z,50.78
2018-06-11T08:37:52.660Z,50.22
2018-06-11T08:40:21.378Z,48.80
2018-06-11T08:42:50.043Z,49.02
2018-06-11T08:45:18.734Z,48.66
2018-06-11T08:47:47.408Z,48.73
2018-06-11T08:50:16.219Z,48.73
2018-06-11T08:52:44.892Z,49.17
2018-06-11T08:55:13.577Z,48.84
2018-06-11T08:57:42.239Z,47.53
2018-06-11T09:00:10.984Z,47.85
2018-06-11T09:02:39.629Z,47.07
2018-06-11T09:05:08.272Z,47.88
2018-06-11T09:07:36.929Z,46.86
2018-06-11T09:10:05.704Z,47.19
2018-06-11T09:12:34.390Z,46.14
2018-06-11T09:15:03.014Z,46.39
2018-06-11T09:17:31.676Z,46.35
2018-06-11T09:20:00.339Z,47.22
2018-06-11T09:22:29.021Z,47.00
2018-06-11T09:24:57.745Z,46.99
2018-06-11T09:27:26.431Z,46.23
2018-06-11T09:29:55.123Z,46.21
2018-06-11T09:32:23.801Z,45.63
2018-06-11T09:34:52.558Z,45.20
2018-06-11T09:37:21.234Z,44.27
2018-06-11T09:39:49.863Z,44.49
2018-06-11T09:42:18.526Z,43.05
2018-06-11T09:44:47.215Z,42.78
2018-06-11T09:47:15.893Z,42.99
2018-06-11T09:49:44.583Z,42.90
2018-06-11T09:52:13.293Z,42.58
2018-06-11T09:54:41.993Z,41.90
2018-06-11T09:57:10.640Z,40.31
2018-06-11T09:59:39.258Z,41.15
2018-06-11T10:02:07.930Z,40.81
2018-06-11T10:04:36.535Z,39.86
2018-06-11T10:07:05.182Z,39.70
2018-06-11T10:09:33.860Z,40.79
2018-06-11T10:12:02.531Z,40.07
2018-06-11T10:14:31.199Z,39.81
2018-06-11T10:17:00.674Z,39.58
2018-06-11T10:19:29.381Z,39.90
2018-06-11T10:21:58.687Z,40.77
2018-06-11T10:24:29.325Z,40.08
2018-06-11T10:27:02.986Z,39.80
2018-06-11T10:32:13.201Z,38.40
2018-06-11T10:34:48.806Z,36.86
2018-06-11T10:37:17.587Z,35.65
2018-06-11T10:39:46.612Z,36.21
2018-06-11T10:42:16.443Z,35.87
2018-06-11T10:44:45.125Z,37.20
2018-06-11T10:47:13.799Z,36.38
2018-06-11T10:49:42.588Z,36.28
2018-06-11T10:52:11.258Z,36.20
2018-06-11T10:54:40.378Z,36.57
2018-06-11T10:57:09.136Z,37.05
2018-06-11T10:59:37.810Z,36.22
2018-06-11T11:02:06.528Z,36.72
2018-06-11T11:04:35.215Z,37.00
2018-06-11T11:07:03.883Z,36.49
2018-06-11T11:09:33.635Z,36.38
2018-06-11T11:12:07.743Z,35.60
2018-06-11T11:14:37.759Z,35.43
2018-06-11T11:17:07.446Z,34.82
2018-06-11T11:19:39.460Z,33.97
2018-06-11T11:22:12.316Z,33.93
2018-06-11T11:24:46.109Z,34.12
2018-06-11T11:27:14.908Z,33.83
2018-06-11T11:29:43.533Z,33.89
2018-06-11T11:32:13.308Z,34.69
2018-06-11T11:34:44.786Z,34.10
2018-06-11T11:37:14.787Z,33.03
2018-06-11T11:39:44.387Z,32.45
2018-06-11T11:42:14.402Z,32.54
2018-06-11T11:44:45.084Z,32.98
2018-06-11T11:47:16.348Z,33.29
2018-06-11T11:49:46.582Z,33.76
2018-06-11T11:52:17.075Z,33.45
2018-06-11T11:54:54.799Z,33.21
2018-06-11T11:57:23.596Z,31.94
2018-06-11T11:59:52.298Z,32.23
2018-06-11T12:02:21.068Z,32.99
2018-06-11T12:04:49.750Z,31.90
2018-06-11T12:07:18.389Z,32.39
2018-06-11T12:09:47.170Z,32.73
2018-06-11T12:12:15.811Z,32.64
2018-06-11T12:14:45.434Z,32.06
2018-06-11T12:17:14.122Z,32.89
2018-06-11T12:19:42.958Z,31.81
2018-06-11T12:22:11.730Z,30.31
2018-06-11T12:24:40.460Z,29.66
2018-06-11T12:27:09.279Z,30.10
2018-06-11T12:29:38.085Z,29.23
2018-06-11T12:32:09.306Z,28.33
2018-06-11T12:34:38.023Z,29.72
2018-06-11T12:37:06.763Z,29.16
2018-06-11T12:39:35.705Z,29.76
2018-06-11T12:42:04.385Z,29.88
2018-06-11T12:44:33.168Z,29.45
2018-06-11T12:47:01.918Z,30.02
2018-06-11T12:49:30.640Z,29.59
2018-06-11T12:51:59.335Z,30.26
2018-06-11T12:54:28.162Z,31.11
2018-06-11T12:56:56.911Z,29.47
2018-06-11T12:59:31.242Z,30.32
2018-06-11T13:01:59.911Z,29.33
2018-06-11T13:04:28.669Z,28.38
2018-06-11T13:06:57.530Z,28.15
2018-06-11T13:09:26.278Z,28.02
2018-06-11T13:11:55.076Z,27.29
2018-06-11T13:14:23.775Z,27.70
2018-06-11T13:16:53.009Z,27.28
2018-06-11T13:19:21.729Z,27.45
2018-06-11T13:21:50.442Z,27.36
2018-06-11T13:24:19.183Z,28.16
2018-06-11T13:26:48.023Z,27.65
2018-06-11T13:29:16.711Z,27.26
2018-06-11T13:31:45.423Z,26.93
2018-06-11T13:34:14.058Z,26.84
2018-06-11T13:36:42.769Z,27.82
2018-06-11T13:39:11.393Z,27.28
2018-06-11T13:41:40.205Z,27.66
2018-06-11T13:44:08.899Z,27.93
2018-06-11T13:46:37.638Z,28.89
2018-06-11T13:49:06.338Z,29.65
2018-06-11T13:51:35.030Z,29.56
2018-06-11T13:54:03.698Z,29.72
2018-06-11T13:56:32.384Z,29.77
2018-06-11T13:59:01.107Z,29.56
2018-06-11T14:01:29.965Z,29.93
2018-06-11T14:03:58.773Z,30.44
2018-06-11T14:06:27.470Z,29.30
2018-06-11T14:08:56.119Z,29.09
2018-06-11T14:11:24.813Z,28.17
2018-06-11T14:13:53.451Z,27.00
2018-06-11T14:16:22.114Z,26.85
2018-06-11T14:18:50.763Z,26.17
2018-06-11T14:21:19.482Z,24.25
2018-06-11T14:23:48.144Z,22.16
2018-06-11T14:26:16.791Z,21.28
2018-06-11T14:28:46.439Z,21.27
2018-06-11T14:31:17.347Z,20.50
2018-06-11T14:33:46.065Z,18.59
2018-06-11T14:36:14.739Z,18.92
2018-06-11T14:38:43.452Z,17.48
2018-06-11T14:41:12.206Z,16.81
2018-06-11T14:43:40.825Z,16.48
2018-06-11T14:46:09.617Z,16.23
2018-06-11T14:48:38.266Z,16.98
2018-06-11T14:51:07.037Z,16.99
2018-06-11T14:53:35.802Z,17.87
2018-06-11T14:56:04.560Z,17.50
2018-06-11T14:58:35.364Z,18.22
2018-06-11T15:01:06.240Z,19.12
2018-06-11T15:03:38.712Z,20.41
2018-06-11T15:06:11.565Z,22.10
2018-06-11T15:08:43.876Z,22.91
2018-06-11T15:11:16.175Z,24.75
2018-06-11T15:13:50.287Z,25.11
2018-06-11T15:16:19.360Z,24.06
2018-06-11T15:18:52.104Z,21.11
2018-06-11T15:21:24.721Z,19.42
2018-06-11T15:23:57.813Z,19.91
2018-06-11T15:26:30.323Z,18.90
2018-06-11T15:29:06.468Z,19.40
2018-06-11T15:31:40.726Z,19.59
2018-06-11T15:34:11.008Z,19.35
2018-06-11T15:36:42.415Z,19.22
2018-06-11T15:39:13.102Z,18.36
2018-06-11T15:41:46.455Z,17.39
2018-06-11T15:44:19.355Z,17.08
2018-06-11T15:46:50.169Z,16.92
2018-06-11T15:49:19.210Z,17.27
2018-06-11T15:51:48.488Z,16.76
2018-06-11T15:54:17.194Z,15.97
2018-06-11T15:56:46.347Z,16.46
2018-06-11T15:59:15.037Z,15.93
2018-06-11T16:01:43.687Z,16.20
2018-06-11T16:04:12.383Z,16.16
2018-06-11T16:06:41.032Z,15.58
2018-06-11T16:09:09.680Z,16.13
2018-06-11T16:11:38.458Z,15.14
2018-06-11T16:14:07.155Z,15.95
2018-06-11T16:16:35.911Z,17.13
2018-06-11T16:19:04.542Z,17.26
2018-06-11T16:21:33.208Z,17.41
2018-06-11T16:24:01.860Z,17.15
2018-06-11T16:26:30.555Z,17.22
2018-06-11T16:28:59.177Z,16.57
2018-06-11T16:31:27.860Z,16.70
2018-06-11T16:33:56.789Z,17.35
2018-06-11T16:36:25.433Z,17.46
2018-06-11T16:38:54.121Z,17.02
2018-06-11T16:41:23.423Z,17.19
2018-06-11T16:43:52.219Z,17.40
2018-06-11T16:46:20.882Z,18.43
2018-06-11T16:48:49.601Z,19.74
2018-06-11T16:51:18.200Z,19.34
2018-06-11T16:53:46.896Z,20.30
2018-06-11T16:56:15.979Z,19.95
2018-06-11T16:58:44.652Z,19.60
2018-06-11T17:01:13.308Z,20.44
2018-06-11T17:03:42.089Z,20.33
2018-06-11T17:06:10.780Z,20.00
2018-06-11T17:08:39.477Z,20.42
2018-06-11T17:11:08.191Z,21.29
2018-06-11T17:13:36.974Z,21.95
2018-06-11T17:16:05.668Z,21.89
2018-06-11T17:18:34.416Z,21.97
2018-06-11T17:21:03.078Z,21.62
2018-06-11T17:23:31.819Z,22.23
2018-06-11T17:26:00.547Z,23.31
2018-06-11T17:28:29.162Z,23.30
2018-06-11T17:30:57.759Z,24.09
2018-06-11T17:33:26.439Z,24.28
2018-06-11T17:35:55.607Z,24.93
2018-06-11T17:38:24.324Z,25.92
2018-06-11T17:40:53.001Z,27.61
2018-06-11T17:43:21.702Z,28.62
2018-06-11T17:45:50.368Z,30.29
2018-06-11T17:48:19.067Z,32.17
2018-06-11T17:50:47.680Z,33.54
2018-06-11T17:53:16.291Z,35.01
2018-06-11T17:55:44.954Z,36.17
2018-06-11T17:58:13.621Z,36.64
2018-06-11T18:00:42.303Z,38.11
2018-06-11T18:03:10.989Z,39.27
2018-06-11T18:05:40.028Z,40.32
2018-06-11T18:08:08.779Z,40.71
2018-06-11T18:10:37.527Z,41.50
2018-06-11T18:13:06.253Z,42.02
2018-06-11T18:15:35.018Z,42.78
2018-06-11T18:18:03.718Z,43.56
2018-06-11T18:20:32.501Z,44.58
2018-06-11T18:23:01.133Z,45.29
2018-06-11T18:25:31.617Z,46.08
2018-06-11T18:28:00.368Z,46.41
2018-06-11T18:33:18.415Z,47.87
2018-06-11T18:35:48.184Z,48.01
2018-06-11T18:38:19.011Z,48.56
2018-06-11T18:40:48.054Z,49.24
2018-06-11T18:43:16.794Z,49.77
2018-06-11T18:45:45.562Z,50.20
2018-06-11T18:48:15.280Z,49.92
2018-06-11T18:50:45.758Z,50.38
2018-06-11T18:53:16.063Z,50.79
2018-06-11T18:55:46.518Z,51.15
2018-06-11T18:58:15.222Z,50.70
2018-06-11T19:00:43.914Z,51.18
2018-06-11T19:03:13.034Z,51.81
2018-06-11T19:05:41.860Z,51.64
2018-06-11T19:08:12.452Z,52.16
2018-06-11T19:10:42.454Z,52.77
2018-06-11T19:13:11.397Z,52.79
2018-06-11T19:15:42.005Z,53.20
2018-06-11T19:18:12.082Z,53.57
2018-06-11T19:20:40.874Z,54.27
2018-06-11T19:23:09.664Z,54.69
2018-06-11T19:25:39.643Z,55.45
2018-06-11T19:28:09.359Z,55.74
2018-06-11T19:30:38.151Z,56.07
2018-06-11T19:33:07.319Z,56.57
2018-06-11T19:35:36.715Z,56.65
2018-06-11T19:38:05.879Z,57.38
2018-06-11T19:40:35.106Z,57.27
2018-06-11T19:43:03.913Z,58.18
2018-06-11T19:45:32.714Z,58.46
2018-06-11T19:48:01.528Z,57.76
2018-06-11T19:50:30.326Z,58.14
2018-06-11T19:52:59.319Z,58.21
2018-06-11T19:55:28.087Z,58.12
2018-06-11T19:57:56.752Z,57.98
2018-06-11T20:00:25.437Z,57.88
2018-06-11T20:02:54.938Z,58.09
2018-06-11T20:05:23.673Z,58.02
2018-06-11T20:07:52.491Z,58.48
2018-06-11T20:10:21.293Z,58.59
2018-06-11T20:12:50.111Z,58.90
2018-06-11T20:15:18.877Z,58.68
2018-06-11T20:17:47.638Z,59.59
2018-06-11T20:20:16.496Z,59.78
2018-06-11T20:22:45.683Z,60.29
2018-06-11T20:25:15.285Z,60.65
2018-06-11T20:27:44.065Z,60.46
2018-06-11T20:30:12.939Z,60.82
2018-06-11T20:32:44.404Z,61.28
2018-06-11T20:35:13.601Z,61.19
2018-06-11T20:37:52.179Z,61.67
2018-06-11T20:40:30.300Z,62.48
2018-06-11T20:42:59.352Z,62.81
2018-06-11T20:45:29.777Z,63.04
2018-06-11T20:47:58.857Z,63.16
2018-06-11T20:50:30.356Z,63.69
2018-06-11T20:52:59.034Z,63.06
2018-06-11T20:55:27.697Z,64.16
2018-06-11T20:57:57.075Z,64.00
2018-06-11T21:00:28.801Z,64.34
2018-06-11T21:03:00.907Z,64.48
2018-06-11T21:05:34.550Z,64.66
2018-06-11T21:08:03.278Z,64.43
2018-06-11T21:10:32.192Z,64.46
2018-06-11T21:13:01.783Z,64.53
2018-06-11T21:15:37.344Z,64.47
2018-06-11T21:18:07.408Z,65.16
2018-06-11T21:20:37.635Z,65.24
2018-06-11T21:23:06.398Z,65.10
2018-06-11T21:25:35.059Z,64.97
2018-06-11T21:28:11.999Z,65.10
2018-06-11T21:30:41.128Z,65.01
2018-06-11T21:33:11.059Z,65.47
2018-06-11T21:35:49.521Z,65.61
2018-06-11T21:38:20.576Z,66.00
2018-06-11T21:40:49.981Z,66.32
2018-06-11T21:43:21.829Z,66.47
2018-06-11T21:45:52.546Z,66.93
2018-06-11T21:48:25.009Z,66.14
2018-06-11T21:50:56.285Z,66.33
2018-06-11T21:53:28.439Z,66.37
2018-06-11T21:58:36.389Z,67.27
2018-06-11T22:01:06.357Z,67.29
2018-06-11T22:03:38.306Z,67.77
2018-06-11T22:06:07.938Z,68.08
2018-06-11T22:08:37.170Z,67.60
2018-06-11T22:11:08.674Z,67.85
2018-06-11T22:13:38.561Z,67.36
2018-06-11T22:16:07.839Z,67.50
2018-06-11T22:18:38.033Z,67.28
2018-06-11T22:21:07.354Z,67.68
2018-06-11T22:23:36.540Z,67.82
2018-06-11T22:26:15.939Z,67.44
2018-06-11T22:28:44.995Z,68.07
2018-06-11T22:31:14.907Z,68.06
2018-06-11T22:33:44.229Z,68.80
2018-06-11T22:36:20.988Z,68.86
2018-06-11T22:38:53.529Z,68.47
2018-06-11T22:41:23.722Z,67.46
2018-06-11T22:43:53.588Z,68.09
2018-06-11T22:46:22.940Z,67.90
2018-06-11T22:48:51.590Z,67.21
2018-06-11T22:51:20.262Z,67.86
2018-06-11T22:53:48.930Z,68.02
2018-06-11T22:56:17.903Z,67.63
2018-06-11T22:58:46.640Z,68.32
2018-06-11T23:01:15.346Z,68.31
2018-06-11T23:03:44.187Z,67.61
2018-06-11T23:06:12.919Z,67.69
2018-06-11T23:08:41.608Z,67.83
2018-06-11T23:11:10.374Z,67.11
2018-06-11T23:13:39.106Z,67.60
2018-06-11T23:16:07.885Z,67.65
2018-06-11T23:18:37.188Z,67.51
2018-06-11T23:21:05.984Z,67.91
2018-06-11T23:23:34.752Z,67.27
2018-06-11T23:26:03.473Z,67.97
2018-06-11T23:28:32.106Z,68.21
2018-06-11T23:31:00.863Z,67.32
2018-06-11T23:33:29.871Z,67.52
2018-06-11T23:35:58.607Z,67.61
2018-06-11T23:38:27.920Z,67.27
2018-06-11T23:40:56.643Z,67.29
2018-06-11T23:43:25.343Z,67.87
2018-06-11T23:45:54.235Z,67.16
2018-06-11T23:48:22.959Z,66.42
2018-06-11T23:50:51.630Z,67.02
2018-06-11T23:53:20.349Z,66.91
2018-06-11T23:55:49.002Z,66.81
2018-06-11T23:58:17.691Z,67.24
